createdAt,value
2022-11-24T00:01:03.011Z,8.56
2022-11-24T00:03:29.698Z,8.56
2022-11-24T00:05:56.246Z,8.55
2022-11-24T00:08:22.718Z,8.52
2022-11-24T00:10:49.323Z,8.51
2022-11-24T00:13:15.876Z,8.43
2022-11-24T00:15:42.412Z,8.44
2022-11-24T00:18:08.924Z,8.45
2022-11-24T00:20:35.446Z,8.45
2022-11-24T00:23:02.015Z,8.42
2022-11-24T00:25:28.512Z,8.37
2022-11-24T00:27:55.050Z,8.36
2022-11-24T00:30:21.543Z,8.14
2022-11-24T00:32:48.041Z,8.01
2022-11-24T00:35:14.705Z,7.88
2022-11-24T00:37:41.220Z,7.91
2022-11-24T00:40:08.490Z,7.92
2022-11-24T00:42:35.006Z,7.94
2022-11-24T00:45:12.938Z,7.98
2022-11-24T00:47:40.214Z,8.04
2022-11-24T00:50:07.289Z,8.04
2022-11-24T00:52:33.792Z,8.13
2022-11-24T00:55:00.286Z,8.21
2022-11-24T00:57:26.829Z,8.20
2022-11-24T00:59:53.361Z,8.23
2022-11-24T01:02:19.922Z,8.25
2022-11-24T01:04:48.029Z,8.24
2022-11-24T01:07:14.608Z,8.28
2022-11-24T01:09:43.186Z,8.30
2022-11-24T01:12:09.916Z,8.25
2022-11-24T01:14:36.938Z,8.10
2022-11-24T01:17:03.658Z,8.12
2022-11-24T01:19:30.185Z,8.08
2022-11-24T01:21:56.680Z,8.05
2022-11-24T01:24:23.189Z,8.02
2022-11-24T01:26:49.732Z,7.91
2022-11-24T01:29:16.327Z,7.94
2022-11-24T01:31:42.874Z,7.90
2022-11-24T01:34:09.423Z,7.74
2022-11-24T01:36:35.946Z,7.51
2022-11-24T01:39:02.516Z,7.26
2022-11-24T01:41:29.037Z,7.46
2022-11-24T01:43:56.438Z,7.56
2022-11-24T01:46:26.479Z,7.58
2022-11-24T01:49:02.257Z,7.53
2022-11-24T01:51:31.256Z,7.46
2022-11-24T01:54:02.775Z,7.45
2022-11-24T01:56:30.886Z,7.46
2022-11-24T01:59:01.549Z,7.43
2022-11-24T02:01:29.271Z,7.35
2022-11-24T02:03:57.085Z,7.29
2022-11-24T02:06:29.054Z,7.32
2022-11-24T02:09:07.678Z,7.34
2022-11-24T02:11:37.220Z,7.25
2022-11-24T02:14:05.966Z,7.41
2022-11-24T02:16:35.572Z,7.31
2022-11-24T02:19:07.067Z,7.42
2022-11-24T02:21:33.713Z,7.40
2022-11-24T02:24:11.430Z,7.45
2022-11-24T02:26:49.715Z,7.47
2022-11-24T02:29:16.524Z,7.56
2022-11-24T02:31:49.743Z,7.60
2022-11-24T02:34:16.318Z,7.58
2022-11-24T02:36:42.834Z,7.70
2022-11-24T02:39:14.269Z,7.77
2022-11-24T02:41:45.102Z,7.72
2022-11-24T02:44:15.876Z,7.60
2022-11-24T02:46:42.454Z,7.50
2022-11-24T02:49:09.001Z,7.46
2022-11-24T02:51:35.643Z,7.33
2022-11-24T02:54:02.149Z,7.29
2022-11-24T02:56:28.653Z,7.33
2022-11-24T02:58:55.190Z,7.30
2022-11-24T03:01:21.745Z,7.23
2022-11-24T03:03:48.441Z,7.26
2022-11-24T03:06:14.943Z,7.33
2022-11-24T03:08:41.436Z,7.42
2022-11-24T03:11:07.925Z,7.38
2022-11-24T03:13:34.411Z,7.38
2022-11-24T03:16:00.948Z,7.38
2022-11-24T03:18:27.487Z,7.42
2022-11-24T03:20:59.557Z,7.50
2022-11-24T03:23:26.405Z,7.54
2022-11-24T03:25:52.915Z,7.47
2022-11-24T03:28:19.400Z,7.46
2022-11-24T03:30:48.579Z,7.43
2022-11-24T03:33:15.122Z,7.45
2022-11-24T03:35:42.299Z,7.47
2022-11-24T03:38:09.023Z,7.48
2022-11-24T03:40:35.552Z,7.48
2022-11-24T03:43:02.043Z,7.50
2022-11-24T03:48:21.122Z,7.53
2022-11-24T03:50:56.222Z,7.50
2022-11-24T03:53:23.996Z,7.51
2022-11-24T03:55:50.524Z,7.52
2022-11-24T03:58:17.191Z,7.47
2022-11-24T04:00:43.718Z,7.57
2022-11-24T04:03:10.283Z,7.57
2022-11-24T04:05:37.131Z,7.56
2022-11-24T04:08:05.428Z,7.54
2022-11-24T04:10:35.930Z,7.52
2022-11-24T04:13:03.934Z,7.52
2022-11-24T04:15:30.519Z,7.51
2022-11-24T04:17:57.919Z,7.45
2022-11-24T04:20:24.535Z,7.44
2022-11-24T04:22:51.885Z,7.35
2022-11-24T04:25:18.523Z,7.32
2022-11-24T04:27:45.463Z,7.21
2022-11-24T04:30:12.194Z,7.08
2022-11-24T04:32:38.698Z,6.97
2022-11-24T04:35:05.519Z,6.92
2022-11-24T04:37:32.025Z,6.84
2022-11-24T04:39:58.529Z,6.79
2022-11-24T04:42:25.159Z,6.70
2022-11-24T04:44:51.902Z,6.55
2022-11-24T04:47:21.726Z,6.48
2022-11-24T04:49:51.603Z,6.52
2022-11-24T04:52:20.592Z,6.55
2022-11-24T04:54:50.754Z,6.63
2022-11-24T04:57:17.241Z,6.71
2022-11-24T04:59:43.774Z,6.73
2022-11-24T05:02:11.102Z,6.76
2022-11-24T05:04:38.039Z,6.78
2022-11-24T05:07:04.898Z,6.71
2022-11-24T05:09:54.999Z,6.76
2022-11-24T05:12:17.975Z,6.85
2022-11-24T05:14:44.534Z,6.91
2022-11-24T05:17:11.083Z,7.00
2022-11-24T05:19:37.550Z,7.06
2022-11-24T05:22:04.114Z,7.09
2022-11-24T05:24:30.771Z,7.17
2022-11-24T05:26:57.404Z,7.17
2022-11-24T05:29:24.007Z,7.21
2022-11-24T05:31:50.607Z,7.23
2022-11-24T05:34:18.316Z,7.27
2022-11-24T05:36:54.151Z,7.33
2022-11-24T05:39:21.331Z,7.39
2022-11-24T05:41:47.904Z,7.42
2022-11-24T05:44:14.421Z,7.47
2022-11-24T05:46:40.989Z,7.47
2022-11-24T05:49:07.575Z,7.50
2022-11-24T05:51:34.558Z,7.54
2022-11-24T05:54:01.115Z,7.53
2022-11-24T05:56:27.781Z,7.59
2022-11-24T05:58:55.201Z,7.65
2022-11-24T06:01:21.692Z,7.61
2022-11-24T06:03:48.366Z,7.63
2022-11-24T06:06:14.891Z,7.71
2022-11-24T06:08:42.118Z,7.77
2022-11-24T06:11:18.274Z,7.72
2022-11-24T06:13:46.049Z,7.69
2022-11-24T06:16:13.318Z,7.67
2022-11-24T06:18:39.937Z,7.72
2022-11-24T06:21:11.463Z,7.90
2022-11-24T06:23:39.020Z,8.00
2022-11-24T06:26:06.068Z,8.09
2022-11-24T06:28:32.634Z,8.13
2022-11-24T06:31:03.485Z,8.16
2022-11-24T06:33:34.742Z,8.20
2022-11-24T06:36:07.419Z,8.21
2022-11-24T06:38:35.785Z,8.16
2022-11-24T06:41:07.339Z,8.19
2022-11-24T06:43:35.910Z,8.11
2022-11-24T06:46:02.944Z,8.14
2022-11-24T06:48:30.284Z,8.18
2022-11-24T06:51:01.345Z,8.12
2022-11-24T06:53:31.587Z,7.97
2022-11-24T06:56:00.045Z,8.02
2022-11-24T06:58:26.715Z,8.07
2022-11-24T07:00:53.633Z,8.17
2022-11-24T07:03:20.340Z,8.22
2022-11-24T07:05:47.013Z,8.31
2022-11-24T07:08:17.796Z,8.30
2022-11-24T07:10:44.784Z,8.09
2022-11-24T07:13:11.354Z,8.13
2022-11-24T07:15:37.980Z,8.19
2022-11-24T07:18:04.758Z,8.40
2022-11-24T07:20:31.660Z,8.61
2022-11-24T07:22:58.435Z,8.79
2022-11-24T07:25:26.015Z,8.92
2022-11-24T07:27:59.898Z,8.95
2022-11-24T07:30:28.357Z,9.03
2022-11-24T07:33:02.514Z,9.09
2022-11-24T07:35:29.824Z,9.30
2022-11-24T07:37:58.042Z,9.45
2022-11-24T07:40:27.010Z,9.55
2022-11-24T07:42:54.437Z,9.64
2022-11-24T07:45:20.904Z,9.69
2022-11-24T07:47:47.456Z,9.73
2022-11-24T07:50:14.360Z,9.83
2022-11-24T07:52:40.871Z,9.84
2022-11-24T07:55:08.079Z,9.76
2022-11-24T07:57:35.077Z,9.97
2022-11-24T08:00:02.338Z,10.22
2022-11-24T08:02:28.941Z,10.32
2022-11-24T08:04:55.522Z,10.30
2022-11-24T08:07:22.070Z,10.33
2022-11-24T08:09:50.444Z,10.41
2022-11-24T08:12:26.056Z,10.53
2022-11-24T08:14:52.586Z,10.62
2022-11-24T08:17:19.133Z,10.76
2022-11-24T08:19:45.863Z,10.74
2022-11-24T08:22:12.508Z,10.70
2022-11-24T08:24:40.423Z,10.69
2022-11-24T08:27:07.035Z,10.60
2022-11-24T08:29:33.647Z,10.74
2022-11-24T08:32:00.294Z,10.76
2022-11-24T08:34:29.571Z,10.72
2022-11-24T08:36:56.151Z,10.75
2022-11-24T08:39:22.802Z,10.81
2022-11-24T08:41:49.354Z,10.73
2022-11-24T08:44:18.180Z,10.71
2022-11-24T08:46:45.366Z,10.76
2022-11-24T08:49:15.074Z,10.83
2022-11-24T08:51:42.405Z,10.83
2022-11-24T08:54:13.380Z,10.90
2022-11-24T08:56:40.170Z,10.95
2022-11-24T08:59:06.912Z,10.87
2022-11-24T09:01:33.962Z,10.88
2022-11-24T09:04:00.681Z,10.90
2022-11-24T09:06:31.006Z,10.83
2022-11-24T09:08:59.595Z,10.82
2022-11-24T09:11:27.290Z,10.90
2022-11-24T09:13:55.517Z,10.88
2022-11-24T09:16:28.829Z,10.69
2022-11-24T09:18:58.340Z,10.74
2022-11-24T09:21:25.975Z,10.64
2022-11-24T09:23:54.017Z,10.67
2022-11-24T09:26:21.919Z,10.75
2022-11-24T09:28:48.859Z,10.81
2022-11-24T09:31:18.003Z,10.92
2022-11-24T09:33:45.554Z,11.00
2022-11-24T09:36:12.297Z,11.05
2022-11-24T09:38:39.079Z,11.07
2022-11-24T09:41:17.495Z,11.13
2022-11-24T09:44:10.239Z,11.26
2022-11-24T09:46:55.245Z,11.29
2022-11-24T09:49:32.360Z,11.31
2022-11-24T09:52:02.516Z,11.27
2022-11-24T09:54:30.993Z,11.30
2022-11-24T09:57:00.862Z,11.40
2022-11-24T09:59:28.445Z,11.38
2022-11-24T10:01:56.648Z,11.51
2022-11-24T10:04:32.742Z,11.54
2022-11-24T10:07:05.416Z,11.59
2022-11-24T10:10:02.303Z,11.68
2022-11-24T10:12:38.022Z,11.73
2022-11-24T10:15:16.052Z,11.71
2022-11-24T10:18:16.411Z,11.68
2022-11-24T10:20:56.180Z,11.68
2022-11-24T10:23:54.556Z,11.69
2022-11-24T10:26:36.323Z,11.75
2022-11-24T10:29:20.425Z,11.86
2022-11-24T10:31:52.282Z,11.95
2022-11-24T10:34:21.582Z,12.09
2022-11-24T10:36:58.020Z,12.20
2022-11-24T10:39:50.548Z,12.21
2022-11-24T10:42:37.456Z,12.13
2022-11-24T10:45:12.277Z,11.98
2022-11-24T10:47:39.617Z,11.86
2022-11-24T10:50:06.332Z,11.73
2022-11-24T10:52:40.750Z,11.54
2022-11-24T10:55:07.877Z,11.44
2022-11-24T10:57:36.844Z,11.30
2022-11-24T11:00:18.416Z,11.32
2022-11-24T11:02:47.554Z,11.28
2022-11-24T11:05:32.198Z,11.33
2022-11-24T11:08:21.041Z,11.33
2022-11-24T11:10:50.513Z,11.19
2022-11-24T11:13:44.015Z,11.09
2022-11-24T11:16:23.599Z,11.02
2022-11-24T11:18:50.277Z,10.92
2022-11-24T11:21:28.815Z,10.73
2022-11-24T11:23:55.404Z,10.78
2022-11-24T11:26:24.987Z,10.79
2022-11-24T11:31:15.612Z,10.70
2022-11-24T11:34:53.555Z,10.68
2022-11-24T11:37:21.726Z,10.68
2022-11-24T11:39:51.200Z,10.73
2022-11-24T11:43:00.834Z,10.72
2022-11-24T11:45:28.758Z,10.46
2022-11-24T11:48:01.115Z,10.45
2022-11-24T11:53:59.986Z,10.26
2022-11-24T11:56:40.405Z,10.14
2022-11-24T11:59:24.032Z,10.20
2022-11-24T12:02:26.014Z,10.21
2022-11-24T12:05:00.676Z,10.26
2022-11-24T12:07:33.321Z,10.24
2022-11-24T12:10:32.012Z,10.22
2022-11-24T12:13:07.253Z,10.13
2022-11-24T12:15:43.262Z,10.08
2022-11-24T12:18:55.279Z,9.97
2022-11-24T12:21:26.186Z,9.79
2022-11-24T12:24:11.913Z,9.87
2022-11-24T12:26:53.590Z,9.86
2022-11-24T12:29:50.900Z,9.76
2022-11-24T12:32:36.238Z,9.80
2022-11-24T12:35:17.950Z,9.87
2022-11-24T12:38:22.639Z,9.91
2022-11-24T12:41:33.709Z,9.98
2022-11-24T12:43:55.370Z,10.04
2022-11-24T12:46:33.844Z,10.20
2022-11-24T12:49:12.087Z,10.24
2022-11-24T12:51:43.492Z,10.25
2022-11-24T12:54:15.670Z,10.35
2022-11-24T12:57:04.607Z,10.49
2022-11-24T12:59:43.776Z,10.40
2022-11-24T13:02:49.563Z,10.36
2022-11-24T13:05:27.240Z,10.34
2022-11-24T13:07:59.425Z,10.21
2022-11-24T13:10:46.996Z,10.20
2022-11-24T13:13:14.555Z,10.12
2022-11-24T13:16:36.129Z,10.06
2022-11-24T13:19:13.805Z,9.90
2022-11-24T13:21:40.330Z,9.90
2022-11-24T13:24:23.421Z,9.99
2022-11-24T13:26:52.692Z,9.99
2022-11-24T13:29:28.400Z,9.88
2022-11-24T13:31:55.975Z,9.84
2022-11-24T13:34:45.938Z,9.72
2022-11-24T13:37:31.220Z,9.74
2022-11-24T13:40:30.765Z,9.71
2022-11-24T13:42:57.599Z,9.73
2022-11-24T13:45:39.856Z,9.79
2022-11-24T13:48:35.895Z,9.74
2022-11-24T13:51:02.413Z,9.79
2022-11-24T13:53:41.132Z,9.81
2022-11-24T13:56:13.853Z,9.87
2022-11-24T13:58:49.218Z,9.90
2022-11-24T14:01:24.929Z,9.92
2022-11-24T14:04:29.197Z,9.93
2022-11-24T14:06:52.424Z,9.81
2022-11-24T14:09:42.580Z,9.75
2022-11-24T14:12:16.486Z,9.77
2022-11-24T14:14:44.737Z,9.77
2022-11-24T14:17:14.700Z,9.74
2022-11-24T14:19:42.864Z,9.66
2022-11-24T14:22:17.068Z,9.63
2022-11-24T14:24:47.060Z,9.67
2022-11-24T14:27:17.310Z,9.68
2022-11-24T14:29:55.329Z,9.66
2022-11-24T14:32:22.872Z,9.63
2022-11-24T14:34:51.046Z,9.55
2022-11-24T14:37:19.441Z,9.45
2022-11-24T14:39:46.493Z,9.43
2022-11-24T14:42:27.281Z,9.35
2022-11-24T14:44:56.547Z,9.30
2022-11-24T14:47:37.586Z,9.30
2022-11-24T14:50:14.913Z,9.24
2022-11-24T14:52:49.725Z,9.21
2022-11-24T14:55:28.309Z,9.16
2022-11-24T14:57:55.356Z,9.12
2022-11-24T15:00:24.809Z,9.12
2022-11-24T15:02:55.519Z,9.08
2022-11-24T15:05:24.219Z,9.00
2022-11-24T15:08:01.451Z,8.98
2022-11-24T15:10:36.261Z,8.88
2022-11-24T15:13:07.300Z,8.88
2022-11-24T15:15:36.638Z,8.78
2022-11-24T15:18:05.347Z,8.80
2022-11-24T15:20:37.720Z,8.83
2022-11-24T15:23:25.375Z,8.77
2022-11-24T15:26:12.154Z,8.74
2022-11-24T15:28:38.957Z,8.77
2022-11-24T15:31:09.603Z,8.69
2022-11-24T15:33:36.551Z,8.64
2022-11-24T15:36:03.171Z,8.67
2022-11-24T15:38:29.723Z,8.74
2022-11-24T15:41:00.010Z,8.77
2022-11-24T15:43:34.307Z,8.82
2022-11-24T15:46:02.269Z,8.73
2022-11-24T15:48:29.657Z,8.69
2022-11-24T15:50:56.543Z,8.67
2022-11-24T15:53:29.545Z,8.66
2022-11-24T15:55:57.544Z,8.63
2022-11-24T15:58:24.307Z,8.62
2022-11-24T16:00:53.411Z,8.58
2022-11-24T16:06:14.399Z,8.60
2022-11-24T16:08:43.503Z,8.50
2022-11-24T16:11:10.103Z,8.52
2022-11-24T16:13:36.741Z,8.48
2022-11-24T16:16:03.664Z,8.47
2022-11-24T16:18:31.790Z,8.42
2022-11-24T16:20:58.545Z,8.38
2022-11-24T16:23:25.085Z,8.31
2022-11-24T16:25:51.906Z,8.34
2022-11-24T16:28:18.520Z,8.37
2022-11-24T16:30:51.124Z,8.40
2022-11-24T16:33:18.081Z,8.38
2022-11-24T16:35:47.548Z,8.44
2022-11-24T16:38:16.269Z,8.48
2022-11-24T16:40:42.899Z,8.50
2022-11-24T16:43:09.644Z,8.49
2022-11-24T16:45:38.586Z,8.50
2022-11-24T16:48:08.847Z,8.49
2022-11-24T16:50:37.514Z,8.56
2022-11-24T16:53:04.042Z,8.69
2022-11-24T16:55:30.586Z,8.75
2022-11-24T16:57:57.169Z,8.74
2022-11-24T17:00:23.753Z,8.72
2022-11-24T17:02:50.426Z,8.70
2022-11-24T17:05:17.141Z,8.74
2022-11-24T17:07:43.732Z,8.67
2022-11-24T17:10:10.525Z,8.72
2022-11-24T17:12:37.717Z,8.72
2022-11-24T17:18:22.427Z,8.82
2022-11-24T17:20:38.525Z,8.88
2022-11-24T17:23:05.070Z,8.95
2022-11-24T17:25:33.133Z,8.86
2022-11-24T17:27:59.676Z,8.91
2022-11-24T17:30:26.223Z,8.91
2022-11-24T17:32:56.841Z,9.01
2022-11-24T17:35:23.704Z,8.99
2022-11-24T17:37:50.232Z,9.01
2022-11-24T17:40:34.545Z,9.06
2022-11-24T17:43:01.624Z,9.00
2022-11-24T17:45:29.837Z,9.04
2022-11-24T17:48:00.986Z,9.09
2022-11-24T17:50:27.593Z,9.02
2022-11-24T17:52:54.527Z,9.11
2022-11-24T17:55:22.510Z,9.11
2022-11-24T17:57:49.101Z,9.13
2022-11-24T18:00:16.123Z,9.13
2022-11-24T18:02:42.826Z,9.12
2022-11-24T18:05:09.532Z,9.11
2022-11-24T18:07:36.808Z,9.17
2022-11-24T18:10:04.173Z,9.17
2022-11-24T18:12:30.717Z,9.22
2022-11-24T18:14:57.285Z,9.27
2022-11-24T18:17:23.933Z,9.32
2022-11-24T18:19:50.468Z,9.34
2022-11-24T18:22:17.639Z,9.42
2022-11-24T18:24:45.813Z,9.47
2022-11-24T18:27:12.338Z,9.48
2022-11-24T18:29:38.915Z,9.53
2022-11-24T18:32:05.994Z,9.58
2022-11-24T18:34:32.736Z,9.62
2022-11-24T18:36:59.749Z,9.66
2022-11-24T18:39:28.333Z,9.65
2022-11-24T18:41:54.905Z,9.65
2022-11-24T18:44:21.467Z,9.64
2022-11-24T18:46:49.369Z,9.59
2022-11-24T18:49:15.896Z,9.64
2022-11-24T18:51:42.511Z,9.67
2022-11-24T18:54:09.026Z,9.58
2022-11-24T18:56:35.542Z,9.49
2022-11-24T18:59:02.356Z,9.50
2022-11-24T19:01:29.461Z,9.55
2022-11-24T19:03:58.521Z,9.52
2022-11-24T19:06:34.390Z,9.50
2022-11-24T19:09:13.122Z,9.48
2022-11-24T19:11:42.704Z,9.44
2022-11-24T19:14:12.601Z,9.31
2022-11-24T19:16:39.479Z,9.36
2022-11-24T19:19:06.874Z,9.32
2022-11-24T19:21:37.231Z,9.37
2022-11-24T19:24:05.893Z,9.32
2022-11-24T19:26:35.088Z,9.31
2022-11-24T19:29:02.440Z,9.27
2022-11-24T19:31:29.032Z,9.37
2022-11-24T19:33:58.587Z,9.36
2022-11-24T19:36:26.225Z,9.46
2022-11-24T19:38:57.123Z,9.52
2022-11-24T19:41:29.477Z,9.59
2022-11-24T19:43:57.955Z,9.59
2022-11-24T19:46:27.325Z,9.56
2022-11-24T19:48:56.880Z,9.58
2022-11-24T19:51:26.290Z,9.63
2022-11-24T19:53:53.212Z,9.65
2022-11-24T19:56:24.996Z,9.60
2022-11-24T19:58:52.524Z,9.61
2022-11-24T20:01:27.396Z,9.64
2022-11-24T20:04:00.239Z,9.61
2022-11-24T20:06:31.244Z,9.68
2022-11-24T20:08:59.366Z,9.68
2022-11-24T20:11:26.300Z,9.66
2022-11-24T20:13:52.859Z,9.61
2022-11-24T20:16:26.268Z,9.63
2022-11-24T20:18:55.032Z,9.59
2022-11-24T20:21:23.901Z,9.61
2022-11-24T20:23:59.354Z,9.57
2022-11-24T20:26:28.673Z,9.57
2022-11-24T20:28:56.650Z,9.47
2022-11-24T20:31:28.876Z,9.33
2022-11-24T20:33:55.818Z,9.26
2022-11-24T20:36:25.347Z,9.28
2022-11-24T20:38:53.609Z,9.24
2022-11-24T20:41:25.689Z,9.23
2022-11-24T20:43:54.053Z,9.24
2022-11-24T20:46:23.949Z,9.25
2022-11-24T20:48:51.203Z,9.26
2022-11-24T20:51:23.849Z,9.23
2022-11-24T20:53:52.284Z,9.24
2022-11-24T20:56:22.806Z,9.29
2022-11-24T20:58:49.658Z,9.31
2022-11-24T21:01:22.727Z,9.29
2022-11-24T21:03:56.840Z,9.29
2022-11-24T21:06:23.849Z,9.28
2022-11-24T21:08:51.053Z,9.29
2022-11-24T21:11:19.122Z,9.30
2022-11-24T21:13:47.586Z,9.27
2022-11-24T21:16:21.461Z,9.25
2022-11-24T21:18:52.385Z,9.20
2022-11-24T21:21:23.538Z,9.18
2022-11-24T21:23:50.419Z,9.14
2022-11-24T21:26:18.166Z,9.15
2022-11-24T21:28:46.568Z,9.14
2022-11-24T21:31:18.665Z,9.11
2022-11-24T21:33:48.157Z,9.02
2022-11-24T21:36:17.785Z,8.97
2022-11-24T21:38:49.579Z,9.03
2022-11-24T21:41:16.264Z,9.04
2022-11-24T21:43:43.177Z,9.06
2022-11-24T21:46:10.965Z,9.04
2022-11-24T21:48:39.119Z,9.00
2022-11-24T21:51:08.090Z,9.12
2022-11-24T21:53:36.848Z,9.12
2022-11-24T21:56:06.990Z,9.19
2022-11-24T21:58:34.089Z,9.17
2022-11-24T22:01:10.937Z,9.15
2022-11-24T22:03:38.159Z,9.17
2022-11-24T22:06:05.058Z,9.15
2022-11-24T22:08:31.903Z,9.11
2022-11-24T22:11:07.202Z,9.08
2022-11-24T22:13:34.257Z,9.06
2022-11-24T22:16:06.265Z,9.06
2022-11-24T22:18:41.227Z,9.08
2022-11-24T22:21:11.236Z,9.07
2022-11-24T22:23:38.074Z,9.06
2022-11-24T22:26:07.422Z,9.02
2022-11-24T22:28:35.382Z,9.07
2022-11-24T22:31:10.862Z,9.02
2022-11-24T22:33:37.680Z,9.08
2022-11-24T22:36:05.011Z,9.08
2022-11-24T22:38:32.754Z,9.03
2022-11-24T22:41:10.821Z,8.99
2022-11-24T22:43:38.672Z,8.89
2022-11-24T22:46:13.861Z,8.81
2022-11-24T22:48:40.993Z,8.83
2022-11-24T22:51:13.501Z,8.80
2022-11-24T22:53:41.928Z,8.83
2022-11-24T22:56:11.084Z,8.87
2022-11-24T22:58:39.378Z,8.90
2022-11-24T23:01:08.106Z,8.94
2022-11-24T23:03:35.922Z,8.92
2022-11-24T23:06:04.131Z,8.97
2022-11-24T23:08:33.679Z,9.06
2022-11-24T23:11:07.093Z,9.03
2022-11-24T23:13:34.193Z,9.01
2022-11-24T23:16:21.214Z,9.02
2022-11-24T23:18:53.548Z,9.00
2022-11-24T23:21:25.366Z,9.02
2022-11-24T23:23:52.978Z,8.98
2022-11-24T23:26:25.423Z,9.01
2022-11-24T23:28:52.178Z,8.98
2022-11-24T23:31:21.516Z,9.04
2022-11-24T23:33:49.563Z,9.10
2022-11-24T23:36:18.565Z,9.14
2022-11-24T23:38:45.570Z,9.20
2022-11-24T23:41:17.433Z,9.22
2022-11-24T23:43:44.125Z,9.20
2022-11-24T23:46:24.561Z,9.20
2022-11-24T23:48:53.487Z,9.15
2022-11-24T23:51:24.034Z,9.15
2022-11-24T23:53:51.253Z,9.20
2022-11-24T23:56:22.697Z,9.20
2022-11-24T23:58:49.430Z,9.18
